Time;durP1;ratioP1;P1;durP2;ratioP2;P2;SDS_P1;SDS_P2;PMS_P1;PMS_P2;Temp;Humidity;BMP_temperature;BMP_pressure;BME280_temperature;BME280_humidity;BME280_pressure;Samples;Min_cycle;Max_cycle;Signal;HPM_P1;HPM_P2
2022/09/15 00:01:34;;;;;;;5.72;1.08;;;19.40;81.80;;;;;;5063127;28;20048;-69
2022/09/15 00:04:00;;;;;;;4.18;1.00;;;19.40;81.70;;;;;;5052471;28;20029;-69
2022/09/15 00:06:29;;;;;;;4.15;1.08;;;19.40;81.60;;;;;;5069438;28;20033;-69
2022/09/15 00:08:55;;;;;;;7.03;1.35;;;19.40;81.60;;;;;;5069768;28;20373;-69
2022/09/15 00:11:25;;;;;;;5.18;1.60;;;19.40;81.70;;;;;;5063561;28;20048;-69
2022/09/15 00:13:52;;;;;;;6.53;1.17;;;19.40;81.70;;;;;;5067702;28;20041;-69
2022/09/15 00:16:20;;;;;;;2.90;1.08;;;19.30;81.60;;;;;;5066608;28;20024;-69
2022/09/15 00:18:46;;;;;;;9.32;1.33;;;19.30;81.50;;;;;;5068308;28;20025;-69
2022/09/15 00:21:15;;;;;;;7.20;1.10;;;19.40;81.50;;;;;;5072165;28;20029;-69
2022/09/15 00:23:42;;;;;;;8.75;1.48;;;19.40;81.40;;;;;;5062702;28;20514;-69
2022/09/15 00:26:09;;;;;;;6.30;1.08;;;19.30;81.40;;;;;;5072559;28;20036;-69
2022/09/15 00:28:36;;;;;;;4.05;1.20;;;19.30;81.50;;;;;;5072183;28;20064;-69
2022/09/15 00:31:08;;;;;;;7.43;1.10;;;19.30;81.50;;;;;;5073287;28;20073;-69
2022/09/15 00:33:34;;;;;;;7.57;1.08;;;19.30;81.30;;;;;;5059221;28;20452;-69
2022/09/15 00:36:04;;;;;;;3.33;1.00;;;19.30;81.20;;;;;;5074454;28;20103;-69
2022/09/15 00:38:30;;;;;;;3.90;1.10;;;19.40;81.00;;;;;;5072914;28;20119;-69
2022/09/15 00:40:57;;;;;;;5.55;1.67;;;19.30;80.60;;;;;;5060694;28;20052;-69
2022/09/15 00:43:46;;;;;;;9.57;1.33;;;19.30;80.60;;;;;;5066204;28;20041;-69
2022/09/15 00:46:13;;;;;;;3.90;1.05;;;19.30;80.60;;;;;;5055219;28;20032;-69
2022/09/15 00:48:46;;;;;;;4.25;0.73;;;19.30;80.40;;;;;;5064974;28;20077;-69
2022/09/15 00:51:15;;;;;;;5.03;0.98;;;19.40;80.50;;;;;;5053920;28;21056;-69
2022/09/15 00:53:42;;;;;;;2.58;0.70;;;19.30;80.60;;;;;;5064413;28;20085;-69
2022/09/15 00:56:11;;;;;;;9.23;1.05;;;19.30;80.50;;;;;;5055794;28;20025;-69
2022/09/15 00:58:45;;;;;;;5.45;0.98;;;19.30;80.50;;;;;;5065524;28;20037;-69
2022/09/15 01:01:13;;;;;;;2.63;1.00;;;19.40;80.80;;;;;;5059128;28;20048;-69
2022/09/15 01:03:39;;;;;;;6.38;1.42;;;19.30;80.60;;;;;;5073136;28;20028;-69
2022/09/15 01:06:34;;;;;;;9.95;1.95;;;19.40;81.00;;;;;;5072201;28;20505;-69
2022/09/15 01:09:13;;;;;;;5.13;1.20;;;19.30;81.10;;;;;;5077771;28;20037;-69
2022/09/15 01:11:39;;;;;;;8.00;1.77;;;19.30;81.40;;;;;;5071023;28;20468;-69
2022/09/15 01:14:05;;;;;;;4.10;1.17;;;19.30;81.20;;;;;;5061999;28;20151;-69
2022/09/15 01:16:46;;;;;;;7.57;1.30;;;19.30;81.20;;;;;;5068287;28;20111;-69
2022/09/15 01:19:44;;;;;;;5.82;1.50;;;19.30;81.40;;;;;;5071741;28;20037;-69
2022/09/15 01:22:35;;;;;;;14.38;1.73;;;19.30;81.20;;;;;;5053688;28;20037;-69
2022/09/15 01:25:07;;;;;;;3.53;0.82;;;19.20;81.00;;;;;;5062449;28;20095;-69
2022/09/15 01:27:53;;;;;;;10.75;1.70;;;19.20;80.90;;;;;;5073045;28;20024;-69
2022/09/15 01:30:23;;;;;;;4.30;1.20;;;19.30;80.60;;;;;;5065194;28;20029;-69
2022/09/15 01:33:17;;;;;;;4.22;0.93;;;19.20;80.40;;;;;;5059871;28;20028;-69
2022/09/15 01:36:38;;;;;;;5.28;1.20;;;19.20;80.20;;;;;;5067269;28;20052;-69
2022/09/15 01:39:26;;;;;;;5.72;1.45;;;19.20;80.00;;;;;;5044471;28;20079;-69
2022/09/15 01:41:58;;;;;;;3.78;1.20;;;19.20;79.70;;;;;;5064802;28;20119;-69
2022/09/15 01:44:48;;;;;;;5.78;0.93;;;19.20;79.40;;;;;;5071362;28;20357;-69
2022/09/15 01:47:18;;;;;;;4.47;1.27;;;19.20;79.20;;;;;;5060978;28;20024;-69
2022/09/15 01:50:04;;;;;;;9.32;1.27;;;19.20;79.10;;;;;;5071826;28;20112;-69
2022/09/15 01:52:40;;;;;;;4.18;1.00;;;19.20;79.00;;;;;;5060826;28;20037;-69
2022/09/15 01:55:13;;;;;;;12.23;1.20;;;19.20;78.90;;;;;;5056875;28;20043;-69
2022/09/15 01:57:38;;;;;;;5.80;1.15;;;19.20;78.80;;;;;;5087901;28;20028;-69
2022/09/15 02:00:04;;;;;;;4.85;1.10;;;19.20;78.80;;;;;;5082353;28;20131;-69
2022/09/15 02:02:36;;;;;;;5.03;1.00;;;19.20;78.90;;;;;;5066325;28;20040;-69
2022/09/15 02:05:19;;;;;;;8.80;1.42;;;19.10;79.20;;;;;;5067851;28;20033;-69
2022/09/15 02:08:18;;;;;;;11.50;1.23;;;19.10;79.80;;;;;;5070256;28;20032;-69
2022/09/15 02:11:06;;;;;;;9.80;1.48;;;19.10;79.80;;;;;;5070015;28;20025;-69
2022/09/15 02:13:41;;;;;;;7.47;1.27;;;19.10;80.00;;;;;;5069943;28;20033;-69
2022/09/15 02:16:18;;;;;;;9.40;1.58;;;19.10;80.20;;;;;;5072214;28;20029;-69
2022/09/15 02:19:03;;;;;;;9.27;1.08;;;19.00;80.30;;;;;;5066349;28;20028;-69
2022/09/15 02:21:42;;;;;;;6.38;1.35;;;19.10;80.30;;;;;;5071962;28;20032;-69
2022/09/15 02:24:17;;;;;;;10.15;1.83;;;19.00;80.30;;;;;;5063472;28;20066;-69
2022/09/15 02:26:45;;;;;;;8.40;1.52;;;19.00;80.20;;;;;;5083574;28;20035;-69
2022/09/15 02:29:15;;;;;;;11.32;1.38;;;19.00;80.00;;;;;;5078905;28;20511;-68
2022/09/15 02:31:43;;;;;;;9.10;1.27;;;19.00;79.90;;;;;;5071723;28;20542;-69
2022/09/15 02:34:31;;;;;;;10.57;1.30;;;19.00;79.90;;;;;;5079383;28;20378;-69
2022/09/15 02:36:57;;;;;;;8.82;1.13;;;18.90;79.80;;;;;;5063856;28;20037;-69
2022/09/15 02:39:30;;;;;;;7.50;1.33;;;18.90;79.60;;;;;;5068040;28;20061;-69
2022/09/15 02:41:58;;;;;;;8.65;1.27;;;18.90;79.40;;;;;;5077326;28;20083;-69
2022/09/15 02:44:24;;;;;;;5.40;1.33;;;18.90;79.30;;;;;;5064154;28;20033;-68
2022/09/15 02:46:50;;;;;;;5.78;1.90;;;18.90;79.40;;;;;;5064656;28;20062;-69
2022/09/15 02:49:15;;;;;;;6.85;1.30;;;18.80;79.30;;;;;;5068739;28;20048;-69
2022/09/15 02:51:41;;;;;;;6.47;1.40;;;18.80;79.10;;;;;;5058474;28;20107;-69
2022/09/15 02:54:07;;;;;;;9.05;1.65;;;18.80;78.90;;;;;;5056235;28;20029;-68
2022/09/15 02:56:33;;;;;;;4.80;1.23;;;18.90;78.60;;;;;;5063776;28;20027;-69
2022/09/15 02:58:58;;;;;;;4.28;1.40;;;18.80;78.40;;;;;;5079039;28;20056;-69
2022/09/15 03:01:30;;;;;;;5.00;1.17;;;18.80;78.20;;;;;;5054957;28;20461;-69
2022/09/15 03:03:56;;;;;;;5.63;1.40;;;18.80;77.80;;;;;;5059338;28;20377;-69
2022/09/15 03:06:23;;;;;;;8.45;1.27;;;18.80;77.70;;;;;;5087053;28;20028;-69
2022/09/15 03:08:57;;;;;;;7.63;1.65;;;18.80;77.70;;;;;;5080754;28;20039;-68
2022/09/15 03:11:25;;;;;;;8.05;1.33;;;18.80;77.70;;;;;;5069433;28;20044;-69
2022/09/15 03:14:05;;;;;;;4.88;1.52;;;18.80;77.70;;;;;;5081982;28;20486;-69
2022/09/15 03:16:33;;;;;;;13.05;2.05;;;18.80;77.60;;;;;;5070744;28;20040;-69
2022/09/15 03:18:59;;;;;;;8.80;1.30;;;18.80;77.60;;;;;;5069464;28;20503;-69
2022/09/15 03:21:29;;;;;;;10.25;1.10;;;18.80;77.60;;;;;;5061781;28;20532;-69
2022/09/15 03:23:57;;;;;;;10.63;1.60;;;18.80;77.40;;;;;;5079829;28;20480;-68
2022/09/15 03:26:22;;;;;;;8.18;1.45;;;18.80;77.30;;;;;;5056255;28;20081;-69
2022/09/15 03:28:48;;;;;;;8.05;1.77;;;18.90;77.30;;;;;;5071408;28;20115;-69
2022/09/15 03:31:14;;;;;;;9.20;1.50;;;18.80;76.90;;;;;;5052597;28;20472;-69
2022/09/15 03:33:40;;;;;;;5.25;1.27;;;18.80;77.00;;;;;;5076001;28;20162;-69
2022/09/15 03:36:06;;;;;;;4.55;1.40;;;18.80;76.90;;;;;;5068717;28;20072;-68
2022/09/15 03:38:32;;;;;;;4.03;1.40;;;18.80;77.00;;;;;;5064338;28;20851;-69
2022/09/15 03:40:59;;;;;;;9.55;1.70;;;18.80;77.00;;;;;;5058348;28;20518;-69
2022/09/15 03:43:26;;;;;;;4.32;1.30;;;18.80;77.00;;;;;;5057582;28;20104;-69
2022/09/15 03:45:53;;;;;;;5.38;1.50;;;18.80;76.90;;;;;;5062752;28;20062;-69
2022/09/15 03:48:18;;;;;;;10.95;2.13;;;18.80;77.10;;;;;;5071968;28;20037;-69
2022/09/15 03:50:44;;;;;;;7.25;1.75;;;18.80;77.70;;;;;;5054804;28;20039;-69
2022/09/15 03:53:10;;;;;;;9.38;1.77;;;18.80;78.20;;;;;;5064315;28;20376;-69
2022/09/15 03:55:36;;;;;;;14.82;1.75;;;18.80;78.30;;;;;;5067836;28;20472;-69
2022/09/15 03:58:01;;;;;;;4.68;1.20;;;18.80;78.30;;;;;;5066261;28;20056;-68
2022/09/15 04:00:28;;;;;;;9.00;1.60;;;18.70;78.10;;;;;;5059617;28;20044;-69
2022/09/15 04:02:53;;;;;;;5.50;1.20;;;18.70;78.10;;;;;;5073081;28;20040;-68
2022/09/15 04:05:19;;;;;;;9.73;1.55;;;18.70;77.70;;;;;;5059924;28;20031;-68
2022/09/15 04:07:44;;;;;;;8.15;1.73;;;18.70;77.40;;;;;;5074070;28;20448;-69
2022/09/15 04:10:10;;;;;;;20.15;1.48;;;18.70;76.60;;;;;;5060993;28;20024;-69
2022/09/15 04:12:36;;;;;;;5.72;1.30;;;18.60;76.80;;;;;;5073018;28;20094;-68
2022/09/15 04:15:02;;;;;;;8.77;1.20;;;18.60;76.20;;;;;;5062066;28;20031;-68
2022/09/15 04:17:31;;;;;;;3.20;0.88;;;18.70;75.90;;;;;;5072291;28;20033;-69
2022/09/15 04:19:57;;;;;;;8.20;1.02;;;18.60;75.20;;;;;;5072842;28;20020;-68
2022/09/15 04:22:29;;;;;;;3.22;1.02;;;18.60;74.50;;;;;;5073116;28;20040;-68
2022/09/15 04:24:54;;;;;;;7.00;1.00;;;18.60;74.20;;;;;;5056971;28;20476;-68
2022/09/15 04:27:20;;;;;;;4.22;0.80;;;18.60;73.20;;;;;;5063965;28;20039;-68
2022/09/15 04:29:50;;;;;;;3.78;0.88;;;18.60;73.30;;;;;;5072136;28;20032;-69
2022/09/15 04:32:15;;;;;;;3.90;0.70;;;18.60;73.30;;;;;;5071354;28;20032;-68
2022/09/15 04:34:41;;;;;;;6.07;1.33;;;18.60;73.50;;;;;;5067614;28;20024;-70
2022/09/15 04:37:07;;;;;;;8.80;2.20;;;18.60;73.40;;;;;;5068394;28;20028;-69
2022/09/15 04:39:32;;;;;;;6.47;1.30;;;18.50;73.40;;;;;;5072885;28;20040;-70
2022/09/15 04:41:58;;;;;;;3.08;0.90;;;18.50;73.90;;;;;;5071223;28;20123;-70
2022/09/15 04:44:23;;;;;;;4.20;0.80;;;18.60;74.20;;;;;;5072324;28;20021;-70
2022/09/15 04:46:49;;;;;;;5.10;1.00;;;18.50;74.20;;;;;;5072043;28;20028;-70
2022/09/15 04:49:15;;;;;;;5.80;0.90;;;18.50;74.40;;;;;;5068393;28;20533;-68
2022/09/15 04:51:40;;;;;;;11.02;1.20;;;18.50;74.20;;;;;;5064997;28;20021;-69
2022/09/15 04:54:06;;;;;;;5.82;0.93;;;18.60;74.40;;;;;;5069214;28;20033;-69
2022/09/15 04:56:32;;;;;;;7.50;1.30;;;18.60;74.40;;;;;;5068311;28;20040;-69
2022/09/15 04:58:58;;;;;;;8.88;1.13;;;18.60;74.40;;;;;;5071850;28;20035;-71
2022/09/15 05:01:29;;;;;;;7.57;1.02;;;18.60;74.60;;;;;;5069612;28;20072;-70
2022/09/15 05:03:55;;;;;;;4.32;1.10;;;18.50;74.80;;;;;;5071451;28;20067;-69
2022/09/15 05:06:24;;;;;;;5.00;1.20;;;18.50;75.00;;;;;;5067070;28;20033;-71
2022/09/15 05:08:52;;;;;;;9.82;2.40;;;18.50;75.10;;;;;;5069916;28;20033;-68
2022/09/15 05:11:18;;;;;;;3.83;1.17;;;18.50;75.30;;;;;;5067930;28;20063;-69
2022/09/15 05:13:45;;;;;;;5.05;0.88;;;18.50;75.40;;;;;;5070996;28;20104;-69
2022/09/15 05:16:16;;;;;;;6.07;1.60;;;18.50;75.40;;;;;;5063972;28;20471;-69
2022/09/15 05:18:45;;;;;;;9.68;1.48;;;18.50;75.30;;;;;;5054207;28;20032;-69
2022/09/15 05:21:12;;;;;;;5.07;1.10;;;18.50;75.40;;;;;;5068666;28;20103;-71
2022/09/15 05:23:38;;;;;;;6.32;1.42;;;18.50;75.30;;;;;;5062041;28;20048;-69
2022/09/15 05:26:06;;;;;;;4.78;1.17;;;18.50;75.60;;;;;;5063352;28;20032;-70
2022/09/15 05:28:34;;;;;;;5.78;1.10;;;18.50;75.50;;;;;;5067441;28;20033;-70
2022/09/15 05:31:00;;;;;;;10.65;1.67;;;18.50;75.40;;;;;;5071426;28;20025;-70
2022/09/15 05:33:26;;;;;;;9.68;1.60;;;18.50;75.30;;;;;;5078231;28;20062;-70
2022/09/15 05:35:56;;;;;;;8.07;1.50;;;18.50;75.30;;;;;;5070884;28;20024;-70
2022/09/15 05:38:23;;;;;;;10.07;1.40;;;18.50;75.30;;;;;;5069529;28;20381;-70
2022/09/15 05:40:49;;;;;;;7.65;1.50;;;18.50;75.30;;;;;;5072887;28;20029;-70
2022/09/15 05:43:16;;;;;;;14.65;1.70;;;18.50;75.50;;;;;;5070053;28;20036;-70
2022/09/15 05:45:42;;;;;;;7.63;1.60;;;18.60;75.70;;;;;;5072706;28;20047;-71
2022/09/15 05:48:11;;;;;;;6.50;1.40;;;18.50;75.80;;;;;;5055378;28;20051;-71
2022/09/15 05:50:38;;;;;;;10.27;2.00;;;18.50;75.90;;;;;;5062375;28;20029;-71
2022/09/15 05:53:04;;;;;;;7.72;1.50;;;18.50;75.90;;;;;;5067580;28;20472;-71
2022/09/15 05:55:35;;;;;;;11.07;1.77;;;18.50;75.70;;;;;;5064012;28;20033;-71
2022/09/15 05:58:00;;;;;;;10.13;1.27;;;18.50;75.80;;;;;;5056700;28;20035;-71
2022/09/15 06:00:27;;;;;;;7.25;1.05;;;18.50;75.70;;;;;;5068921;28;20029;-71
2022/09/15 06:02:52;;;;;;;4.13;0.93;;;18.50;75.60;;;;;;5070921;28;20476;-72
2022/09/15 06:05:18;;;;;;;6.63;1.42;;;18.40;75.60;;;;;;5068753;28;20029;-71
2022/09/15 06:07:43;;;;;;;4.45;0.93;;;18.40;75.60;;;;;;5068320;28;20090;-71
2022/09/15 06:10:09;;;;;;;3.55;0.88;;;18.40;75.50;;;;;;5068459;28;20023;-72
2022/09/15 06:12:35;;;;;;;6.43;1.00;;;18.40;75.70;;;;;;5070780;28;20437;-71
2022/09/15 06:15:01;;;;;;;6.22;1.30;;;18.40;75.80;;;;;;5063518;28;20100;-72
2022/09/15 06:17:27;;;;;;;6.55;1.15;;;18.40;76.00;;;;;;5062198;28;20029;-72
2022/09/15 06:19:53;;;;;;;5.18;1.15;;;18.40;76.10;;;;;;5052620;28;20033;-72
2022/09/15 06:22:19;;;;;;;8.00;1.25;;;18.40;76.30;;;;;;5063322;28;20041;-71
2022/09/15 06:24:45;;;;;;;9.43;2.92;;;18.50;76.60;;;;;;5064357;28;20122;-71
2022/09/15 06:27:10;;;;;;;6.47;1.20;;;18.50;76.80;;;;;;5063087;28;20407;-71
2022/09/15 06:29:36;;;;;;;13.02;1.42;;;18.50;77.00;;;;;;5060917;28;20456;-71
2022/09/15 06:32:02;;;;;;;8.15;1.70;;;18.50;77.00;;;;;;5060648;28;20048;-72
2022/09/15 06:34:28;;;;;;;5.13;1.20;;;18.50;77.10;;;;;;5075109;28;20123;-70
2022/09/15 06:36:54;;;;;;;8.38;1.45;;;18.50;77.20;;;;;;5066356;28;20349;-71
2022/09/15 06:39:20;;;;;;;2.58;1.08;;;18.50;77.20;;;;;;5069721;28;20056;-71
2022/09/15 06:41:46;;;;;;;6.75;2.33;;;18.50;77.10;;;;;;5069623;28;20032;-71
2022/09/15 06:44:20;;;;;;;4.55;0.93;;;18.60;77.20;;;;;;5046449;28;20083;-71
2022/09/15 06:46:46;;;;;;;8.88;1.25;;;18.50;77.10;;;;;;5051071;28;20025;-71
2022/09/15 06:49:11;;;;;;;8.80;1.30;;;18.50;77.20;;;;;;5051968;28;20090;-73
2022/09/15 06:51:37;;;;;;;9.77;1.10;;;18.50;77.20;;;;;;5067755;28;20029;-71
2022/09/15 06:54:04;;;;;;;8.88;1.20;;;18.50;77.40;;;;;;5069745;28;20044;-71
2022/09/15 06:56:30;;;;;;;9.15;2.05;;;18.50;77.40;;;;;;5054153;28;20029;-71
2022/09/15 06:58:56;;;;;;;4.43;1.02;;;18.60;77.60;;;;;;5062901;28;20059;-71
2022/09/15 07:01:27;;;;;;;3.22;1.05;;;18.50;77.60;;;;;;5070050;28;20068;-71
2022/09/15 07:03:54;;;;;;;4.57;1.15;;;18.60;77.70;;;;;;5070713;28;20044;-71
2022/09/15 07:06:23;;;;;;;6.93;1.40;;;18.60;77.80;;;;;;5051884;28;20109;-70
2022/09/15 07:08:49;;;;;;;7.93;1.15;;;18.60;77.90;;;;;;5063396;28;20158;-71
2022/09/15 07:11:16;;;;;;;3.67;1.20;;;18.60;78.00;;;;;;5053111;28;20473;-71
2022/09/15 07:13:42;;;;;;;5.85;1.23;;;18.50;77.90;;;;;;5064187;28;20171;-71
2022/09/15 07:16:10;;;;;;;10.07;2.17;;;18.60;78.20;;;;;;5057933;28;20115;-71
2022/09/15 07:18:36;;;;;;;7.95;1.88;;;18.60;78.70;;;;;;5070422;28;20036;-71
2022/09/15 07:21:09;;;;;;;13.10;1.80;;;18.60;79.30;;;;;;5071629;28;20396;-71
2022/09/15 07:23:35;;;;;;;7.15;1.60;;;18.60;79.70;;;;;;5061053;28;20047;-71
2022/09/15 07:26:06;;;;;;;5.55;1.38;;;18.60;79.90;;;;;;5075436;28;20028;-71
2022/09/15 07:28:33;;;;;;;9.63;1.40;;;18.70;80.20;;;;;;5071410;28;20033;-71
2022/09/15 07:30:59;;;;;;;7.20;1.85;;;18.70;80.50;;;;;;5065390;28;20111;-71
2022/09/15 07:33:24;;;;;;;5.45;1.30;;;18.70;80.70;;;;;;5079147;28;20045;-71
2022/09/15 07:35:50;;;;;;;5.38;0.90;;;18.70;80.80;;;;;;5060667;28;20082;-71
2022/09/15 07:38:15;;;;;;;7.25;1.52;;;18.70;80.70;;;;;;5074452;28;20040;-72
2022/09/15 07:40:41;;;;;;;8.10;1.95;;;18.70;80.80;;;;;;5074628;28;20243;-71
2022/09/15 07:43:07;;;;;;;7.30;1.63;;;18.70;80.20;;;;;;5067915;28;20483;-71
2022/09/15 07:45:34;;;;;;;7.95;1.38;;;18.70;80.20;;;;;;5072167;28;20029;-71
2022/09/15 07:47:59;;;;;;;7.53;1.50;;;18.80;80.30;;;;;;5061786;28;20071;-71
2022/09/15 07:50:25;;;;;;;13.35;1.80;;;18.70;80.30;;;;;;5070043;28;20418;-70
2022/09/15 07:52:57;;;;;;;10.63;1.45;;;18.70;80.40;;;;;;5071273;28;20349;-71
2022/09/15 07:55:23;;;;;;;7.65;1.55;;;18.80;80.70;;;;;;5062489;28;20090;-71
2022/09/15 07:57:56;;;;;;;6.75;1.17;;;18.80;80.30;;;;;;5060424;28;20503;-71
2022/09/15 08:00:22;;;;;;;7.97;1.45;;;18.80;80.70;;;;;;5073480;28;20086;-71
2022/09/15 08:02:48;;;;;;;2.97;1.30;;;18.80;80.80;;;;;;5059464;28;20041;-71
2022/09/15 08:05:13;;;;;;;6.43;1.50;;;18.90;81.20;;;;;;5060255;28;20101;-70
2022/09/15 08:07:39;;;;;;;5.68;1.17;;;18.80;80.90;;;;;;5076199;28;20028;-71
2022/09/15 08:10:05;;;;;;;3.67;1.48;;;18.90;81.10;;;;;;5065319;28;20446;-71
2022/09/15 08:12:31;;;;;;;6.50;2.13;;;18.90;81.30;;;;;;5066906;28;20158;-71
2022/09/15 08:14:56;;;;;;;7.93;2.13;;;19.00;80.60;;;;;;5067551;28;20111;-71
2022/09/15 08:17:22;;;;;;;6.22;1.85;;;19.10;80.70;;;;;;5066246;28;20040;-72
2022/09/15 08:19:47;;;;;;;5.50;2.05;;;19.10;80.80;;;;;;5062090;28;20168;-71
2022/09/15 08:22:13;;;;;;;9.32;2.13;;;19.10;80.90;;;;;;5066123;28;20051;-71
2022/09/15 08:24:39;;;;;;;5.97;2.33;;;19.10;80.90;;;;;;5063147;28;20017;-71
2022/09/15 08:27:04;;;;;;;6.18;1.67;;;19.10;80.80;;;;;;5063450;28;20420;-71
2022/09/15 08:29:31;;;;;;;10.00;1.70;;;19.10;80.50;;;;;;5063188;28;20033;-71
2022/09/15 08:31:57;;;;;;;9.65;1.50;;;19.10;80.40;;;;;;5059119;28;20090;-72
2022/09/15 08:34:27;;;;;;;5.78;0.98;;;19.10;80.40;;;;;;5085293;28;20032;-71
2022/09/15 08:36:52;;;;;;;10.30;1.00;;;19.10;80.60;;;;;;5071558;28;20483;-71
2022/09/15 08:39:18;;;;;;;5.90;1.27;;;19.10;80.90;;;;;;5064760;28;20048;-71
2022/09/15 08:41:46;;;;;;;8.80;1.25;;;19.20;80.90;;;;;;5053400;28;20059;-71
2022/09/15 08:44:39;;;;;;;9.50;1.98;;;19.20;81.30;;;;;;5056624;28;20043;-71
2022/09/15 08:47:19;;;;;;;6.93;1.27;;;19.20;81.70;;;;;;5061439;28;20024;-71
2022/09/15 08:50:03;;;;;;;6.65;1.42;;;19.20;81.30;;;;;;5067484;28;20035;-71
2022/09/15 08:52:38;;;;;;;5.90;1.85;;;19.10;82.10;;;;;;5068695;28;20043;-71
2022/09/15 08:55:22;;;;;;;3.53;1.20;;;19.10;83.00;;;;;;5067106;28;20182;-71
2022/09/15 08:57:51;;;;;;;6.22;1.77;;;19.10;82.50;;;;;;5064427;28;20060;-71
2022/09/15 09:00:16;;;;;;;6.82;1.30;;;19.10;82.00;;;;;;5072340;28;20499;-72
2022/09/15 09:03:28;;;;;;;3.50;1.30;;;19.10;81.80;;;;;;5068564;28;20119;-72
2022/09/15 09:05:57;;;;;;;5.65;1.38;;;19.10;81.70;;;;;;5067230;28;20127;-72
2022/09/15 09:08:51;;;;;;;5.53;1.23;;;19.10;81.90;;;;;;5067238;28;20020;-71
2022/09/15 09:11:55;;;;;;;5.25;0.90;;;19.10;81.90;;;;;;5063974;28;20031;-71
2022/09/15 09:14:37;;;;;;;6.35;1.17;;;19.10;81.70;;;;;;5004036;28;20034;-70
2022/09/15 09:17:23;;;;;;;6.63;2.08;;;19.10;81.40;;;;;;5011423;28;21644;-70
2022/09/15 09:20:00;;;;;;;11.50;3.00;;;19.10;80.50;;;;;;5046828;28;20040;-70
2022/09/15 09:22:31;;;;;;;12.68;2.90;;;19.10;79.70;;;;;;5060570;28;20036;-70
2022/09/15 09:25:00;;;;;;;6.82;2.83;;;19.10;79.40;;;;;;5073065;28;20031;-70
2022/09/15 09:27:30;;;;;;;7.25;2.25;;;19.10;79.20;;;;;;5072166;28;20115;-70
2022/09/15 09:30:19;;;;;;;8.52;1.50;;;19.10;79.20;;;;;;5062110;28;20530;-70
2022/09/15 09:33:03;;;;;;;7.10;1.45;;;19.20;79.30;;;;;;5065612;28;20107;-70
2022/09/15 09:35:48;;;;;;;11.20;1.63;;;19.20;79.00;;;;;;5057280;28;20740;-70
2022/09/15 09:38:19;;;;;;;4.00;1.10;;;19.20;79.00;;;;;;5057777;28;20036;-69
2022/09/15 09:40:45;;;;;;;4.18;1.30;;;19.20;78.70;;;;;;5062890;28;20121;-69
2022/09/15 09:43:14;;;;;;;3.85;1.10;;;19.20;79.20;;;;;;5071829;28;20102;-69
2022/09/15 09:45:40;;;;;;;8.30;2.30;;;19.20;79.50;;;;;;5073213;28;20047;-70
2022/09/15 09:48:19;;;;;;;6.50;0.90;;;19.30;79.70;;;;;;5068831;28;20472;-70
2022/09/15 09:50:45;;;;;;;6.72;1.25;;;19.30;79.30;;;;;;5063680;28;20462;-69
2022/09/15 09:53:27;;;;;;;6.13;1.35;;;19.40;79.00;;;;;;5070617;28;20047;-69
2022/09/15 09:56:13;;;;;;;4.25;1.23;;;19.30;79.20;;;;;;5057827;28;20036;-70
2022/09/15 09:58:38;;;;;;;6.10;1.48;;;19.30;78.80;;;;;;5053355;28;20036;-69
2022/09/15 10:01:18;;;;;;;9.52;1.70;;;19.40;78.50;;;;;;5051832;28;20601;-69
2022/09/15 10:03:44;;;;;;;3.72;1.33;;;19.40;78.60;;;;;;5063898;28;20384;-69
2022/09/15 10:06:22;;;;;;;7.97;1.48;;;19.40;79.00;;;;;;5058916;28;20025;-69
2022/09/15 10:09:15;;;;;;;4.35;1.50;;;19.50;79.60;;;;;;5072265;28;20113;-69
2022/09/15 10:11:51;;;;;;;9.00;1.20;;;19.50;79.20;;;;;;5056700;28;20051;-70
2022/09/15 10:14:29;;;;;;;10.23;1.33;;;19.60;79.30;;;;;;5066459;28;20158;-71
2022/09/15 10:17:08;;;;;;;3.50;1.08;;;19.60;79.20;;;;;;5064129;28;20383;-69
2022/09/15 10:19:53;;;;;;;10.55;1.35;;;19.60;78.90;;;;;;5063037;28;20032;-69
2022/09/15 10:22:33;;;;;;;12.43;1.50;;;19.70;79.10;;;;;;5067581;28;20048;-69
2022/09/15 10:25:00;;;;;;;9.10;1.50;;;19.70;78.70;;;;;;5059957;28;20460;-69
2022/09/15 10:27:28;;;;;;;3.50;1.10;;;19.70;78.90;;;;;;5068644;28;20062;-69
2022/09/15 10:29:54;;;;;;;7.78;1.35;;;19.70;78.50;;;;;;5067365;28;20035;-71
2022/09/15 10:32:27;;;;;;;8.15;1.98;;;19.70;77.90;;;;;;5062439;28;20034;-70
2022/09/15 10:35:01;;;;;;;5.97;1.10;;;19.70;77.40;;;;;;5067083;28;20334;-69
2022/09/15 10:37:34;;;;;;;2.55;0.63;;;19.80;77.60;;;;;;5051938;28;20400;-69
2022/09/15 10:40:16;;;;;;;1.35;0.50;;;19.80;77.30;;;;;;5064158;28;20052;-69
2022/09/15 10:42:53;;;;;;;2.08;0.43;;;19.80;78.10;;;;;;5062032;28;20436;-69
2022/09/15 10:45:30;;;;;;;0.68;0.32;;;19.70;79.40;;;;;;5058273;28;20090;-70
2022/09/15 10:48:18;;;;;;;2.55;0.80;;;19.60;80.30;;;;;;5069435;28;20037;-69
2022/09/15 10:51:02;;;;;;;4.30;1.33;;;19.50;81.00;;;;;;5071289;28;20036;-69
2022/09/15 10:54:04;;;;;;;4.82;1.13;;;19.40;82.10;;;;;;5070047;28;20028;-68
2022/09/15 10:56:41;;;;;;;3.17;0.57;;;19.30;82.70;;;;;;5065339;28;20162;-68
2022/09/15 10:59:44;;;;;;;0.43;0.43;;;19.20;83.30;;;;;;5065035;28;20116;-69
2022/09/15 11:02:13;;;;;;;3.60;1.08;;;19.10;83.90;;;;;;5062672;28;20048;-69
2022/09/15 11:05:03;;;;;;;6.05;0.80;;;19.10;84.20;;;;;;5063137;28;20032;-69
2022/09/15 11:07:56;;;;;;;3.50;0.93;;;19.10;84.70;;;;;;5068343;28;20510;-69
2022/09/15 11:10:35;;;;;;;0.68;0.68;;;19.00;84.80;;;;;;5069293;28;20460;-68
2022/09/15 11:13:12;;;;;;;3.13;0.63;;;19.00;85.60;;;;;;5069578;28;20051;-68
2022/09/15 11:15:53;;;;;;;3.45;1.33;;;19.00;85.80;;;;;;5066186;28;20024;-69
2022/09/15 11:19:03;;;;;;;1.73;0.57;;;19.00;86.10;;;;;;5066540;28;20086;-69
2022/09/15 11:21:46;;;;;;;4.03;0.82;;;19.10;85.70;;;;;;5066650;28;20070;-68
2022/09/15 11:24:24;;;;;;;6.23;1.00;;;19.20;85.50;;;;;;5067022;28;20040;-69
2022/09/15 11:26:59;;;;;;;3.53;1.45;;;19.20;85.60;;;;;;5066438;28;20118;-69
2022/09/15 11:29:51;;;;;;;8.65;1.20;;;19.30;85.70;;;;;;5066959;28;20037;-69
2022/09/15 11:32:24;;;;;;;2.53;0.95;;;19.40;86.10;;;;;;5065707;28;20068;-68
2022/09/15 11:34:59;;;;;;;5.63;1.10;;;19.40;86.40;;;;;;5068132;28;20035;-69
2022/09/15 11:37:38;;;;;;;1.17;0.50;;;19.50;85.00;;;;;;5055503;28;20052;-68
2022/09/15 11:40:22;;;;;;;9.13;1.42;;;19.50;85.20;;;;;;5058194;28;20501;-68
2022/09/15 11:43:02;;;;;;;6.40;1.50;;;19.50;86.30;;;;;;5063355;28;20132;-69
2022/09/15 11:45:34;;;;;;;6.05;1.42;;;19.60;86.20;;;;;;5056342;28;20119;-69
2022/09/15 11:48:10;;;;;;;10.20;1.35;;;19.60;86.20;;;;;;5063574;28;20025;-69
2022/09/15 11:50:39;;;;;;;4.22;1.10;;;19.70;86.50;;;;;;5069023;28;20032;-68
2022/09/15 11:53:17;;;;;;;4.40;1.13;;;19.80;86.30;;;;;;5067082;28;20028;-71
2022/09/15 11:56:04;;;;;;;6.75;1.20;;;19.80;86.00;;;;;;5067604;28;20029;-69
2022/09/15 11:58:52;;;;;;;8.35;2.22;;;19.80;85.50;;;;;;5059158;28;20549;-69
2022/09/15 12:01:30;;;;;;;8.88;1.10;;;19.90;85.90;;;;;;5065840;28;20028;-69
2022/09/15 12:04:04;;;;;;;5.68;1.08;;;19.90;85.00;;;;;;5065382;28;20043;-70
2022/09/15 12:06:53;;;;;;;4.57;1.70;;;19.90;84.60;;;;;;5061388;28;20037;-69
2022/09/15 12:09:20;;;;;;;6.38;1.45;;;20.00;84.80;;;;;;5067571;28;20064;-69
2022/09/15 12:11:49;;;;;;;6.45;1.40;;;20.00;84.60;;;;;;5072273;28;20029;-69
2022/09/15 12:14:41;;;;;;;4.70;1.40;;;20.00;84.30;;;;;;5071732;28;20478;-69
2022/09/15 12:17:14;;;;;;;3.90;1.20;;;20.00;84.40;;;;;;5058720;28;20025;-69
2022/09/15 12:20:00;;;;;;;8.10;1.60;;;19.90;84.60;;;;;;5072727;28;20028;-69
2022/09/15 12:22:41;;;;;;;4.05;1.10;;;20.00;84.80;;;;;;5069537;28;20380;-67
2022/09/15 12:25:18;;;;;;;7.47;1.70;;;20.00;85.00;;;;;;5066088;28;20028;-68
2022/09/15 12:28:22;;;;;;;7.68;1.45;;;20.00;84.60;;;;;;5071752;28;20029;-67
2022/09/15 12:31:27;;;;;;;8.18;1.65;;;20.00;85.00;;;;;;5066089;28;20124;-67
2022/09/15 12:33:57;;;;;;;6.97;1.38;;;20.10;85.00;;;;;;5077129;28;20039;-68
2022/09/15 12:36:30;;;;;;;8.20;1.55;;;20.00;85.00;;;;;;5065099;28;20062;-67
2022/09/15 12:38:57;;;;;;;9.35;1.42;;;20.10;85.70;;;;;;5068057;28;20488;-68
2022/09/15 12:41:23;;;;;;;12.60;2.15;;;20.10;85.40;;;;;;5071794;28;20036;-68
2022/09/15 12:44:05;;;;;;;7.85;1.95;;;20.10;84.00;;;;;;5071424;28;20082;-68
2022/09/15 12:46:31;;;;;;;6.28;1.45;;;20.20;83.20;;;;;;5065448;28;20029;-67
2022/09/15 12:49:01;;;;;;;2.85;0.93;;;20.20;82.80;;;;;;5070783;28;20073;-68
2022/09/15 12:51:28;;;;;;;4.90;1.20;;;20.20;82.70;;;;;;5069076;28;20029;-67
2022/09/15 12:53:58;;;;;;;6.32;1.48;;;20.20;83.00;;;;;;5065044;28;20060;-67
2022/09/15 12:56:29;;;;;;;7.57;1.52;;;20.30;82.90;;;;;;5066145;28;20479;-68
2022/09/15 12:59:01;;;;;;;5.28;1.10;;;20.30;82.90;;;;;;5071079;28;20100;-68
2022/09/15 13:01:27;;;;;;;10.00;1.65;;;20.30;82.20;;;;;;5067166;28;20029;-68
2022/09/15 13:03:58;;;;;;;6.47;1.60;;;20.30;82.70;;;;;;5068940;28;20044;-68
2022/09/15 13:06:25;;;;;;;7.07;1.30;;;20.30;82.70;;;;;;5070337;28;20047;-68
2022/09/15 13:09:02;;;;;;;8.27;1.20;;;20.30;82.90;;;;;;5070543;28;20032;-67
2022/09/15 13:11:36;;;;;;;7.28;1.83;;;20.40;83.00;;;;;;5053692;28;20496;-67